createdAt,value
2018-12-22T00:01:31.459Z,60.48
2018-12-22T00:06:34.810Z,59.50
2018-12-22T00:11:38.253Z,60.98
2018-12-22T00:16:41.646Z,59.96
2018-12-22T00:21:44.966Z,59.94
2018-12-22T00:26:48.394Z,59.67
2018-12-22T00:31:51.792Z,60.40
2018-12-22T00:36:55.185Z,60.11
2018-12-22T00:41:58.540Z,61.59
2018-12-22T00:47:02.022Z,59.92
2018-12-22T00:52:05.442Z,60.46
2018-12-22T00:57:08.779Z,60.99
2018-12-22T01:02:12.261Z,60.93
2018-12-22T01:07:15.553Z,60.31
2018-12-22T01:12:18.929Z,60.21
2018-12-22T01:17:22.248Z,61.58
2018-12-22T01:22:25.787Z,60.84
2018-12-22T01:27:29.208Z,60.89
2018-12-22T01:32:32.557Z,61.00
2018-12-22T01:37:35.942Z,60.71
2018-12-22T01:42:39.338Z,61.56
2018-12-22T01:47:42.703Z,61.18
2018-12-22T01:52:46.170Z,61.59
2018-12-22T01:57:49.502Z,61.61
2018-12-22T02:02:52.849Z,60.82
2018-12-22T02:07:56.195Z,61.10
2018-12-22T02:12:59.502Z,61.37
2018-12-22T02:18:02.818Z,61.34
2018-12-22T02:23:06.184Z,61.14
2018-12-22T02:28:09.649Z,61.43
2018-12-22T02:33:12.948Z,61.13
2018-12-22T02:38:16.268Z,61.29
2018-12-22T02:43:19.607Z,61.31
2018-12-22T02:48:22.907Z,61.35
2018-12-22T02:53:26.202Z,60.67
2018-12-22T02:58:29.522Z,60.69
2018-12-22T03:03:32.830Z,61.28
2018-12-22T03:08:36.195Z,61.29
2018-12-22T03:13:39.513Z,61.20
2018-12-22T03:18:42.829Z,61.06
2018-12-22T03:23:46.230Z,61.39
2018-12-22T03:28:49.550Z,61.93
2018-12-22T03:33:52.945Z,61.04
2018-12-22T03:38:56.253Z,61.56
2018-12-22T03:43:59.581Z,61.25
2018-12-22T03:49:02.926Z,61.31
2018-12-22T03:54:06.253Z,61.25
2018-12-22T03:59:09.621Z,61.35
2018-12-22T04:04:13.049Z,61.63
2018-12-22T04:09:16.494Z,61.36
2018-12-22T04:14:19.832Z,62.85
2018-12-22T04:19:23.180Z,62.57
2018-12-22T04:24:26.714Z,63.02
2018-12-22T04:29:33.939Z,62.65
2018-12-22T04:34:35.431Z,63.10
2018-12-22T04:39:39.057Z,63.07
2018-12-22T04:44:42.447Z,62.66
2018-12-22T04:49:45.790Z,62.74
2018-12-22T04:54:49.142Z,63.00
2018-12-22T04:59:52.507Z,63.07
2018-12-22T05:04:55.929Z,62.91
2018-12-22T05:09:59.312Z,63.18
2018-12-22T05:15:02.706Z,63.04
2018-12-22T05:20:06.843Z,63.09
2018-12-22T05:25:10.188Z,62.87
2018-12-22T05:30:13.674Z,62.88
2018-12-22T05:35:16.982Z,63.75
2018-12-22T05:40:20.353Z,63.77
2018-12-22T05:45:23.773Z,64.19
2018-12-22T05:50:27.454Z,64.19
2018-12-22T05:55:30.826Z,63.90
2018-12-22T06:00:34.133Z,63.75
2018-12-22T06:05:37.559Z,63.80
2018-12-22T06:10:40.983Z,64.03
2018-12-22T06:15:44.382Z,64.25
2018-12-22T06:20:47.877Z,64.38
2018-12-22T06:25:51.373Z,63.89
2018-12-22T06:30:54.719Z,64.28
2018-12-22T06:35:58.119Z,64.43
2018-12-22T06:41:01.466Z,64.65
2018-12-22T06:46:05.029Z,64.90
2018-12-22T06:51:08.511Z,64.69
2018-12-22T06:56:11.856Z,65.00
2018-12-22T07:01:15.199Z,64.93
2018-12-22T07:06:18.493Z,65.26
2018-12-22T07:11:21.818Z,64.45
2018-12-22T07:16:25.126Z,64.63
2018-12-22T07:21:28.535Z,64.93
2018-12-22T07:26:31.856Z,64.82
2018-12-22T07:31:35.160Z,64.44
2018-12-22T07:36:38.496Z,64.86
2018-12-22T07:41:41.794Z,65.06
2018-12-22T07:46:45.100Z,65.12
2018-12-22T07:51:48.436Z,65.48
2018-12-22T07:56:51.736Z,65.52
2018-12-22T08:01:55.026Z,65.94
2018-12-22T08:06:58.649Z,59.06
2018-12-22T08:12:01.946Z,60.63
2018-12-22T08:17:05.467Z,61.55
2018-12-22T08:22:08.868Z,61.56
2018-12-22T08:27:12.219Z,57.86
2018-12-22T08:32:15.504Z,58.30
2018-12-22T08:37:18.929Z,58.55
2018-12-22T08:42:22.330Z,58.50
2018-12-22T08:47:25.754Z,59.31
2018-12-22T08:52:29.132Z,59.23
2018-12-22T08:57:32.542Z,59.93
2018-12-22T09:02:35.985Z,60.52
2018-12-22T09:07:39.384Z,60.88
2018-12-22T09:12:42.740Z,61.15
2018-12-22T09:17:46.061Z,61.32
2018-12-22T09:22:49.393Z,61.91
2018-12-22T09:27:52.757Z,62.16
2018-12-22T09:32:56.166Z,62.33
2018-12-22T09:37:59.478Z,62.66
2018-12-22T09:43:02.790Z,62.52
2018-12-22T09:48:06.117Z,62.67
2018-12-22T09:53:10.021Z,63.06
2018-12-22T09:58:13.641Z,62.79
2018-12-22T10:03:17.222Z,62.66
2018-12-22T10:08:20.725Z,63.06
2018-12-22T10:13:24.134Z,63.13
2018-12-22T10:18:28.110Z,62.88
2018-12-22T10:23:31.822Z,63.05
2018-12-22T10:28:35.238Z,63.46
2018-12-22T10:33:38.557Z,63.53
2018-12-22T10:38:41.902Z,63.68
2018-12-22T10:43:45.229Z,63.52
2018-12-22T10:48:48.605Z,63.55
2018-12-22T10:53:51.976Z,63.54
2018-12-22T10:58:55.390Z,63.57
2018-12-22T11:03:59.741Z,63.91
2018-12-22T11:09:03.102Z,64.03
2018-12-22T11:14:06.589Z,64.19
2018-12-22T11:19:09.995Z,64.18
2018-12-22T11:24:13.527Z,64.02
2018-12-22T11:29:16.895Z,64.23
2018-12-22T11:34:20.368Z,64.13
2018-12-22T11:39:23.854Z,64.23
2018-12-22T11:44:27.161Z,63.67
2018-12-22T11:49:34.512Z,64.37
2018-12-22T11:54:37.896Z,63.78
2018-12-22T11:59:41.200Z,64.44
2018-12-22T12:04:44.514Z,64.98
2018-12-22T12:09:47.932Z,65.20
2018-12-22T12:14:51.422Z,65.33
2018-12-22T12:19:54.801Z,65.33
2018-12-22T12:24:58.706Z,64.36
2018-12-22T12:30:02.284Z,63.87
2018-12-22T12:35:07.396Z,64.06
2018-12-22T12:40:12.529Z,63.69
2018-12-22T12:45:16.010Z,63.92
2018-12-22T12:50:21.454Z,63.33
2018-12-22T12:55:24.965Z,64.08
2018-12-22T13:00:28.380Z,64.46
2018-12-22T13:05:31.890Z,64.63
2018-12-22T13:10:35.346Z,63.97
2018-12-22T13:15:38.661Z,63.85
2018-12-22T13:20:42.065Z,64.50
2018-12-22T13:25:45.411Z,64.41
2018-12-22T13:30:48.786Z,64.58
2018-12-22T13:35:52.346Z,64.01
2018-12-22T13:40:55.825Z,64.00
2018-12-22T13:45:59.204Z,63.63
2018-12-22T13:51:02.597Z,63.67
2018-12-22T13:56:06.024Z,63.81
2018-12-22T14:01:12.965Z,64.28
2018-12-22T14:06:21.958Z,63.73
2018-12-22T14:11:25.368Z,63.71
2018-12-22T14:16:36.194Z,63.91
2018-12-22T14:21:40.304Z,64.53
2018-12-22T14:26:43.740Z,63.51
2018-12-22T14:31:47.103Z,63.75
2018-12-22T14:36:50.531Z,62.94
2018-12-22T14:41:53.915Z,64.40
2018-12-22T14:46:57.290Z,63.94
2018-12-22T14:52:00.600Z,64.32
2018-12-22T14:57:04.158Z,64.55
2018-12-22T15:02:07.522Z,64.98
2018-12-22T15:07:10.960Z,64.62
2018-12-22T15:12:14.344Z,65.46
2018-12-22T15:17:17.669Z,65.33
2018-12-22T15:22:21.215Z,65.06
2018-12-22T15:27:25.110Z,65.06
2018-12-22T15:32:28.410Z,65.34
2018-12-22T15:37:31.730Z,65.03
2018-12-22T15:42:35.148Z,65.37
2018-12-22T15:47:38.640Z,65.50
2018-12-22T15:52:42.112Z,65.44
2018-12-22T15:57:45.529Z,65.54
2018-12-22T16:02:53.164Z,65.27
2018-12-22T16:07:54.291Z,64.83
2018-12-22T16:12:57.597Z,64.52
2018-12-22T16:18:01.043Z,64.61
2018-12-22T16:23:04.979Z,64.21
2018-12-22T16:28:27.390Z,64.64
2018-12-22T16:33:30.747Z,63.81
2018-12-22T16:38:34.078Z,61.17
2018-12-22T16:43:38.152Z,63.17
2018-12-22T16:48:44.434Z,63.69
2018-12-22T16:53:47.743Z,63.73
2018-12-22T16:58:55.261Z,63.37
2018-12-22T17:03:58.570Z,62.97
2018-12-22T17:09:01.973Z,62.56
2018-12-22T17:14:05.377Z,62.39
2018-12-22T17:19:08.769Z,61.81
2018-12-22T17:24:20.373Z,62.43
2018-12-22T17:29:23.685Z,61.63
2018-12-22T17:34:27.002Z,63.89
2018-12-22T17:39:36.618Z,63.49
2018-12-22T17:44:35.776Z,62.69
2018-12-22T17:49:39.152Z,62.66
2018-12-22T17:54:42.458Z,62.56
2018-12-22T17:59:45.911Z,62.14
2018-12-22T18:04:49.219Z,61.15
2018-12-22T18:09:52.561Z,61.71
2018-12-22T18:14:56.053Z,61.40
2018-12-22T18:19:59.336Z,62.29
2018-12-22T18:25:02.935Z,61.39
2018-12-22T18:30:08.981Z,61.45
2018-12-22T18:35:13.026Z,61.80
2018-12-22T18:40:18.679Z,60.65
2018-12-22T18:45:21.973Z,61.40
2018-12-22T18:50:26.885Z,61.11
2018-12-22T18:55:30.241Z,60.76
2018-12-22T19:00:33.643Z,61.55
2018-12-22T19:05:36.949Z,61.13
2018-12-22T19:10:45.999Z,61.30
2018-12-22T19:15:49.503Z,61.57
2018-12-22T19:20:54.971Z,61.14
2018-12-22T19:25:58.261Z,60.96
2018-12-22T19:31:02.280Z,61.01
2018-12-22T19:36:05.750Z,60.49
2018-12-22T19:41:09.081Z,60.81
2018-12-22T19:46:12.434Z,60.66
2018-12-22T19:51:15.933Z,60.50
2018-12-22T19:56:19.284Z,60.50
2018-12-22T20:01:22.747Z,60.84
2018-12-22T20:06:26.102Z,60.28
2018-12-22T20:11:29.578Z,60.79
2018-12-22T20:16:32.919Z,60.67
2018-12-22T20:21:36.268Z,60.55
2018-12-22T20:26:40.051Z,60.32
2018-12-22T20:31:44.199Z,60.98
2018-12-22T20:36:47.638Z,60.23
2018-12-22T20:41:51.028Z,60.53
2018-12-22T20:46:54.517Z,60.43
2018-12-22T20:51:57.915Z,60.65
2018-12-22T20:57:01.368Z,60.58
2018-12-22T21:02:05.454Z,60.35
2018-12-22T21:07:08.856Z,61.61
2018-12-22T21:12:12.225Z,60.16
2018-12-22T21:17:15.561Z,61.48
2018-12-22T21:22:18.886Z,60.92
2018-12-22T21:27:22.221Z,61.43
2018-12-22T21:32:25.642Z,61.76
2018-12-22T21:37:28.963Z,60.88
2018-12-22T21:42:33.372Z,60.55
2018-12-22T21:47:36.678Z,61.12
2018-12-22T21:52:40.182Z,61.00
2018-12-22T21:57:43.522Z,59.52
2018-12-22T22:02:46.849Z,61.54
2018-12-22T22:07:50.166Z,61.26
2018-12-22T22:12:53.520Z,60.19
2018-12-22T22:17:56.886Z,60.49
2018-12-22T22:23:00.206Z,60.31
2018-12-22T22:28:03.621Z,61.15
2018-12-22T22:33:06.927Z,61.53
2018-12-22T22:38:10.281Z,61.04
2018-12-22T22:43:13.655Z,60.00
2018-12-22T22:48:16.970Z,60.62
2018-12-22T22:53:20.376Z,61.27
2018-12-22T22:58:23.769Z,60.14
2018-12-22T23:03:27.070Z,60.42
2018-12-22T23:08:30.385Z,60.91
2018-12-22T23:13:33.693Z,60.88
2018-12-22T23:18:37.015Z,61.31
2018-12-22T23:23:40.345Z,60.64
2018-12-22T23:28:43.764Z,60.61
2018-12-22T23:33:47.189Z,61.44
2018-12-22T23:38:50.488Z,61.18
2018-12-22T23:43:53.802Z,61.15
2018-12-22T23:48:57.218Z,60.98
2018-12-22T23:54:00.569Z,60.59
2018-12-22T23:59:04.030Z,60.64
